createdAt,value
2018-12-19T00:00:56.785Z,100729.48
2018-12-19T00:02:03.100Z,100726.48
2018-12-19T00:03:09.466Z,100729.05
2018-12-19T00:04:15.878Z,100729.88
2018-12-19T00:05:22.206Z,100726.45
2018-12-19T00:06:28.548Z,100727.73
2018-12-19T00:07:34.927Z,100724.73
2018-12-19T00:08:41.358Z,100721.70
2018-12-19T00:09:47.698Z,100725.99
2018-12-19T00:10:54.923Z,100722.56
2018-12-19T00:12:01.308Z,100718.28
2018-12-19T00:13:07.459Z,100724.69
2018-12-19T00:14:13.869Z,100719.55
2018-12-19T00:15:20.233Z,100718.69
2018-12-19T00:16:26.621Z,100721.66
2018-12-19T00:17:32.976Z,100719.95
2018-12-19T00:18:39.384Z,100719.09
2018-12-19T00:19:45.792Z,100724.71
2018-12-19T00:20:52.180Z,100719.11
2018-12-19T00:21:58.505Z,100724.23
2018-12-19T00:23:04.813Z,100725.51
2018-12-19T00:24:11.141Z,100728.08
2018-12-19T00:25:17.283Z,100723.77
2018-12-19T00:26:23.627Z,100727.63
2018-12-19T00:27:29.988Z,100727.17
2018-12-19T00:28:36.332Z,100730.14
2018-12-19T00:29:42.760Z,100734.48
2018-12-19T00:30:49.098Z,100730.59
2018-12-19T00:31:55.437Z,100728.84
2018-12-19T00:33:01.754Z,100734.08
2018-12-19T00:34:08.117Z,100734.44
2018-12-19T00:35:14.493Z,100729.67
2018-12-19T00:36:20.858Z,100734.09
2018-12-19T00:37:27.193Z,100728.09
2018-12-19T00:38:33.547Z,100731.52
2018-12-19T00:39:39.908Z,100724.09
2018-12-19T00:40:46.293Z,100723.62
2018-12-19T00:41:52.666Z,100730.43
2018-12-19T00:42:59.019Z,100721.37
2018-12-19T00:44:05.329Z,100722.99
2018-12-19T00:45:11.689Z,100723.84
2018-12-19T00:46:18.026Z,100722.52
2018-12-19T00:47:24.372Z,100713.92
2018-12-19T00:48:30.771Z,100715.10
2018-12-19T00:49:37.151Z,100720.62
2018-12-19T00:50:43.502Z,100711.56
2018-12-19T00:51:49.828Z,100711.94
2018-12-19T00:52:56.173Z,100711.05
2018-12-19T00:54:02.158Z,100708.55
2018-12-19T00:55:08.209Z,100716.75
2018-12-19T00:56:15.147Z,100716.77
2018-12-19T00:57:22.189Z,100716.34
2018-12-19T00:58:28.549Z,100712.60
2018-12-19T00:59:34.942Z,100709.98
2018-12-19T01:00:41.303Z,100707.94
2018-12-19T01:01:47.648Z,100710.92
2018-12-19T01:02:54.027Z,100704.43
2018-12-19T01:04:00.393Z,100702.73
2018-12-19T01:05:06.081Z,100698.07
2018-12-19T01:06:12.452Z,100697.17
2018-12-19T01:07:18.817Z,100689.84
2018-12-19T01:08:25.114Z,100694.67
2018-12-19T01:09:31.438Z,100688.27
2018-12-19T01:10:37.558Z,100689.71
2018-12-19T01:11:43.889Z,100694.40
2018-12-19T01:12:50.218Z,100696.48
2018-12-19T01:13:56.212Z,100692.55
2018-12-19T01:15:02.592Z,100688.59
2018-12-19T01:16:08.930Z,100692.44
2018-12-19T01:17:15.625Z,100685.23
2018-12-19T01:18:21.989Z,100689.47
2018-12-19T01:19:28.411Z,100682.59
2018-12-19T01:20:34.807Z,100683.44
2018-12-19T01:21:41.112Z,100679.87
2018-12-19T01:22:47.518Z,100675.20
2018-12-19T01:23:53.871Z,100675.75
2018-12-19T01:25:00.248Z,100677.73
2018-12-19T01:26:06.209Z,100666.59
2018-12-19T01:27:12.608Z,100673.78
2018-12-19T01:28:18.937Z,100664.34
2018-12-19T01:29:25.307Z,100658.19
2018-12-19T01:30:31.649Z,100662.77
2018-12-19T01:31:38.002Z,100655.78
2018-12-19T01:32:44.321Z,100667.25
2018-12-19T01:33:50.661Z,100664.63
2018-12-19T01:34:57.067Z,100662.30
2018-12-19T01:36:03.430Z,100660.95
2018-12-19T01:37:09.771Z,100660.77
2018-12-19T01:38:16.147Z,100663.50
2018-12-19T01:39:22.982Z,100656.78
2018-12-19T01:40:29.342Z,100660.12
2018-12-19T01:41:35.704Z,100654.23
2018-12-19T01:42:42.086Z,100659.73
2018-12-19T01:43:48.404Z,100659.40
2018-12-19T01:44:54.794Z,100664.80
2018-12-19T01:46:01.190Z,100663.15
2018-12-19T01:47:07.521Z,100651.70
2018-12-19T01:48:13.924Z,100660.83
2018-12-19T01:49:20.332Z,100657.12
2018-12-19T01:50:26.733Z,100653.97
2018-12-19T01:51:32.910Z,100656.93
2018-12-19T01:52:39.246Z,100652.53
2018-12-19T01:53:45.605Z,100647.20
2018-12-19T01:54:51.969Z,100650.91
2018-12-19T01:55:58.296Z,100641.19
2018-12-19T01:57:04.665Z,100647.75
2018-12-19T01:58:10.983Z,100638.00
2018-12-19T01:59:17.629Z,100640.30
2018-12-19T02:00:23.792Z,100636.49
2018-12-19T02:01:28.758Z,100640.14
2018-12-19T02:02:34.068Z,100638.78
2018-12-19T02:03:39.368Z,100636.56
2018-12-19T02:04:44.670Z,100630.83
2018-12-19T02:05:50.826Z,100629.19
2018-12-19T02:06:57.191Z,100628.97
2018-12-19T02:08:03.529Z,100619.12
2018-12-19T02:09:09.472Z,100621.70
2018-12-19T02:10:15.832Z,100620.80
2018-12-19T02:11:22.191Z,100624.66
2018-12-19T02:12:28.508Z,100623.36
2018-12-19T02:13:34.884Z,100626.38
2018-12-19T02:14:41.221Z,100623.20
2018-12-19T02:15:47.567Z,100628.38
2018-12-19T02:16:53.898Z,100627.49
2018-12-19T02:18:00.243Z,100619.41
2018-12-19T02:19:06.609Z,100620.19
2018-12-19T02:20:12.960Z,100618.97
2018-12-19T02:21:19.348Z,100625.43
2018-12-19T02:22:26.923Z,100627.05
2018-12-19T02:23:32.544Z,100625.27
2018-12-19T02:24:38.899Z,100625.19
2018-12-19T02:25:44.923Z,100626.01
2018-12-19T02:26:51.264Z,100627.77
2018-12-19T02:27:57.624Z,100625.56
2018-12-19T02:29:03.608Z,100623.08
2018-12-19T02:30:09.257Z,100618.78
2018-12-19T02:31:15.598Z,100619.58
2018-12-19T02:32:21.961Z,100616.98
2018-12-19T02:33:28.322Z,100609.66
2018-12-19T02:34:34.705Z,100604.08
2018-12-19T02:35:41.046Z,100603.23
2018-12-19T02:36:47.411Z,100600.69
2018-12-19T02:37:53.755Z,100600.71
2018-12-19T02:39:00.110Z,100599.44
2018-12-19T02:40:05.776Z,100601.12
2018-12-19T02:41:12.113Z,100597.66
2018-12-19T02:42:18.440Z,100604.56
2018-12-19T02:43:24.795Z,100606.26
2018-12-19T02:44:31.149Z,100615.70
2018-12-19T02:45:37.509Z,100614.57
2018-12-19T02:46:43.889Z,100611.97
2018-12-19T02:47:50.331Z,100610.24
2018-12-19T02:48:56.722Z,100600.71
2018-12-19T02:50:02.681Z,100602.38
2018-12-19T02:51:09.037Z,100596.72
2018-12-19T02:52:15.381Z,100595.52
2018-12-19T02:53:21.675Z,100595.16
2018-12-19T02:54:28.031Z,100595.21
2018-12-19T02:55:34.396Z,100590.65
2018-12-19T02:56:40.714Z,100580.81
2018-12-19T02:57:47.036Z,100574.26
2018-12-19T02:58:53.389Z,100574.72
2018-12-19T02:59:59.767Z,100564.34
2018-12-19T03:01:06.138Z,100566.91
2018-12-19T03:02:12.515Z,100568.18
2018-12-19T03:03:19.302Z,100566.05
2018-12-19T03:04:25.684Z,100561.28
2018-12-19T03:05:31.996Z,100563.48
2018-12-19T03:06:38.581Z,100558.83
2018-12-19T03:07:45.341Z,100560.48
2018-12-19T03:08:51.720Z,100554.49
2018-12-19T03:09:58.029Z,100558.42
2018-12-19T03:11:04.707Z,100560.09
2018-12-19T03:12:11.070Z,100558.36
2018-12-19T03:13:17.429Z,100559.61
2018-12-19T03:14:25.658Z,100554.03
2018-12-19T03:15:32.011Z,100555.81
2018-12-19T03:16:38.079Z,100549.77
2018-12-19T03:17:44.447Z,100555.75
2018-12-19T03:18:50.770Z,100550.22
2018-12-19T03:19:57.137Z,100544.21
2018-12-19T03:21:03.536Z,100546.08
2018-12-19T03:22:09.907Z,100544.79
2018-12-19T03:23:16.273Z,100550.38
2018-12-19T03:24:22.666Z,100555.57
2018-12-19T03:25:29.379Z,100553.38
2018-12-19T03:26:37.607Z,100552.06
2018-12-19T03:27:45.583Z,100556.81
2018-12-19T03:28:51.981Z,100559.27
2018-12-19T03:29:58.344Z,100560.23
2018-12-19T03:31:04.739Z,100559.45
2018-12-19T03:32:11.259Z,100550.31
2018-12-19T03:33:17.618Z,100545.55
2018-12-19T03:34:23.930Z,100543.87
2018-12-19T03:35:30.289Z,100537.02
2018-12-19T03:36:36.686Z,100538.76
2018-12-19T03:37:42.988Z,100537.05
2018-12-19T03:38:49.288Z,100528.45
2018-12-19T03:39:55.609Z,100532.28
2018-12-19T03:41:01.649Z,100523.86
2018-12-19T03:42:08.010Z,100525.55
2018-12-19T03:43:14.344Z,100529.41
2018-12-19T03:44:20.702Z,100531.98
2018-12-19T03:45:27.094Z,100530.22
2018-12-19T03:46:33.473Z,100525.86
2018-12-19T03:47:39.853Z,100526.30
2018-12-19T03:48:51.645Z,100523.23
2018-12-19T03:49:57.791Z,100521.09
2018-12-19T03:51:04.184Z,100527.94
2018-12-19T03:52:10.540Z,100522.38
2018-12-19T03:53:16.900Z,100524.52
2018-12-19T03:54:22.639Z,100530.08
2018-12-19T03:55:29.005Z,100526.70
2018-12-19T03:56:35.377Z,100519.34
2018-12-19T03:57:41.736Z,100520.67
2018-12-19T03:58:48.602Z,100514.30
2018-12-19T03:59:55.390Z,100517.81
2018-12-19T04:01:01.807Z,100526.81
2018-12-19T04:02:08.316Z,100526.79
2018-12-19T04:03:14.696Z,100522.51
2018-12-19T04:04:21.055Z,100528.53
2018-12-19T04:05:27.388Z,100525.96
2018-12-19T04:06:33.774Z,100525.13
2018-12-19T04:07:40.131Z,100526.41
2018-12-19T04:08:46.473Z,100529.44
2018-12-19T04:09:57.792Z,100528.59
2018-12-19T04:10:59.302Z,100529.42
2018-12-19T04:12:05.305Z,100533.30
2018-12-19T04:13:11.630Z,100530.69
2018-12-19T04:14:18.028Z,100526.41
2018-12-19T04:15:24.422Z,100522.95
2018-12-19T04:16:30.812Z,100525.92
2018-12-19T04:17:37.125Z,100530.84
2018-12-19T04:18:43.711Z,100525.98
2018-12-19T04:19:50.627Z,100527.22
2018-12-19T04:20:57.651Z,100519.03
2018-12-19T04:22:04.812Z,100523.86
2018-12-19T04:23:11.708Z,100522.69
2018-12-19T04:24:18.265Z,100520.86
2018-12-19T04:25:24.635Z,100523.36
2018-12-19T04:26:31.030Z,100521.72
2018-12-19T04:27:37.380Z,100520.02
2018-12-19T04:28:43.806Z,100519.23
2018-12-19T04:29:50.616Z,100514.45
2018-12-19T04:30:56.988Z,100511.91
2018-12-19T04:32:03.398Z,100511.50
2018-12-19T04:33:09.733Z,100516.24
2018-12-19T04:34:16.116Z,100521.45
2018-12-19T04:35:22.482Z,100513.25
2018-12-19T04:36:28.852Z,100518.77
2018-12-19T04:37:35.191Z,100514.05
2018-12-19T04:38:41.281Z,100509.78
2018-12-19T04:39:47.696Z,100511.09
2018-12-19T04:40:54.078Z,100505.98
2018-12-19T04:42:00.449Z,100509.02
2018-12-19T04:43:06.821Z,100509.91
2018-12-19T04:44:13.177Z,100500.05
2018-12-19T04:45:19.573Z,100509.08
2018-12-19T04:46:26.001Z,100510.39
2018-12-19T04:47:32.309Z,100503.59
2018-12-19T04:48:38.706Z,100501.04
2018-12-19T04:49:45.500Z,100501.45
2018-12-19T04:50:52.022Z,100500.62
2018-12-19T04:51:58.442Z,100496.74
2018-12-19T04:53:04.809Z,100498.43
2018-12-19T04:54:11.157Z,100495.42
2018-12-19T04:55:17.545Z,100495.44
2018-12-19T04:56:23.883Z,100491.16
2018-12-19T04:57:30.257Z,100490.69
2018-12-19T04:58:37.856Z,100485.96
2018-12-19T04:59:43.004Z,100488.52
2018-12-19T05:00:49.368Z,100486.83
2018-12-19T05:01:55.816Z,100489.00
2018-12-19T05:03:02.165Z,100484.69
2018-12-19T05:04:08.518Z,100490.69
2018-12-19T05:05:14.561Z,100481.69
2018-12-19T05:06:20.977Z,100488.13
2018-12-19T05:07:27.099Z,100485.61
2018-12-19T05:08:33.503Z,100486.06
2018-12-19T05:09:40.230Z,100494.25
2018-12-19T05:10:46.655Z,100498.48
2018-12-19T05:11:53.245Z,100504.54
2018-12-19T05:13:00.564Z,100507.56
2018-12-19T05:14:06.133Z,100504.97
2018-12-19T05:15:12.650Z,100501.06
2018-12-19T05:16:19.035Z,100498.50
2018-12-19T05:17:25.405Z,100501.12
2018-12-19T05:18:31.789Z,100502.00
2018-12-19T05:19:38.164Z,100491.70
2018-12-19T05:20:44.540Z,100490.45
2018-12-19T05:21:50.888Z,100491.31
2018-12-19T05:22:57.255Z,100484.02
2018-12-19T05:24:03.599Z,100487.88
2018-12-19T05:25:10.013Z,100484.86
2018-12-19T05:26:16.384Z,100488.32
2018-12-19T05:27:22.724Z,100493.05
2018-12-19T05:28:29.088Z,100493.48
2018-12-19T05:29:35.438Z,100493.92
2018-12-19T05:30:41.815Z,100496.49
2018-12-19T05:31:48.164Z,100497.81
2018-12-19T05:32:54.528Z,100500.77
2018-12-19T05:34:00.873Z,100501.25
2018-12-19T05:35:06.499Z,100501.25
2018-12-19T05:36:12.852Z,100491.30
2018-12-19T05:37:19.171Z,100490.43
2018-12-19T05:38:25.506Z,100489.61
2018-12-19T05:39:31.830Z,100490.05
2018-12-19T05:40:38.170Z,100484.87
2018-12-19T05:41:44.559Z,100477.98
2018-12-19T05:42:50.924Z,100481.84
2018-12-19T05:43:57.236Z,100485.73
2018-12-19T05:45:03.203Z,100481.47
2018-12-19T05:46:09.188Z,100482.78
2018-12-19T05:47:15.280Z,100480.61
2018-12-19T05:48:21.728Z,100470.65
2018-12-19T05:49:28.094Z,100471.08
2018-12-19T05:50:34.185Z,100471.52
2018-12-19T05:51:40.582Z,100471.55
2018-12-19T05:52:46.674Z,100474.13
2018-12-19T05:53:53.002Z,100474.16
2018-12-19T05:54:59.146Z,100484.02
2018-12-19T05:56:05.541Z,100484.41
2018-12-19T05:57:11.692Z,100480.13
2018-12-19T05:58:18.042Z,100480.11
2018-12-19T05:59:24.353Z,100487.05
2018-12-19T06:00:32.554Z,100482.77
2018-12-19T06:01:38.916Z,100476.73
2018-12-19T06:02:45.232Z,100470.33
2018-12-19T06:03:51.595Z,100477.19
2018-12-19T06:04:57.908Z,100474.20
2018-12-19T06:06:03.891Z,100471.62
2018-12-19T06:07:10.242Z,100469.45
2018-12-19T06:08:16.569Z,100475.50
2018-12-19T06:09:23.108Z,100468.59
2018-12-19T06:10:29.480Z,100469.03
2018-12-19T06:11:36.028Z,100461.33
2018-12-19T06:12:42.383Z,100460.02
2018-12-19T06:13:48.755Z,100454.44
2018-12-19T06:14:55.144Z,100455.30
2018-12-19T06:16:01.578Z,100451.85
2018-12-19T06:17:07.634Z,100463.89
2018-12-19T06:18:14.215Z,100463.48
2018-12-19T06:19:21.417Z,100469.05
2018-12-19T06:20:27.845Z,100472.05
2018-12-19T06:21:34.233Z,100478.08
2018-12-19T06:22:40.761Z,100475.52
2018-12-19T06:23:46.865Z,100469.92
2018-12-19T06:24:55.111Z,100472.51
2018-12-19T06:26:02.512Z,100471.23
2018-12-19T06:27:08.895Z,100473.80
2018-12-19T06:28:15.245Z,100476.36
2018-12-19T06:29:21.601Z,100475.52
2018-12-19T06:30:27.756Z,100478.52
2018-12-19T06:31:33.734Z,100477.23
2018-12-19T06:32:39.865Z,100474.22
2018-12-19T06:33:45.942Z,100472.50
2018-12-19T06:34:51.969Z,100480.66
2018-12-19T06:35:58.331Z,100474.23
2018-12-19T06:37:04.729Z,100474.23
2018-12-19T06:38:11.113Z,100473.36
2018-12-19T06:39:17.497Z,100476.80
2018-12-19T06:40:23.868Z,100480.21
2018-12-19T06:41:30.216Z,100479.36
2018-12-19T06:42:36.573Z,100488.37
2018-12-19T06:43:42.878Z,100476.79
2018-12-19T06:44:49.222Z,100480.23
2018-12-19T06:45:55.566Z,100480.68
2018-12-19T06:47:01.953Z,100477.23
2018-12-19T06:48:08.357Z,100477.66
2018-12-19T06:49:14.738Z,100476.36
2018-12-19T06:50:21.080Z,100478.95
2018-12-19T06:51:27.470Z,100472.94
2018-12-19T06:52:33.836Z,100468.19
2018-12-19T06:53:40.154Z,100475.07
2018-12-19T06:54:46.490Z,100475.08
2018-12-19T06:55:52.846Z,100477.25
2018-12-19T06:56:59.201Z,100481.52
2018-12-19T06:58:05.170Z,100478.09
2018-12-19T06:59:11.517Z,100481.53
2018-12-19T07:00:17.886Z,100477.66
2018-12-19T07:01:24.503Z,100478.08
2018-12-19T07:02:31.066Z,100480.23
2018-12-19T07:03:38.325Z,100480.23
2018-12-19T07:04:45.422Z,100484.55
2018-12-19T07:05:51.817Z,100485.40
2018-12-19T07:06:58.165Z,100481.11
2018-12-19T07:08:04.175Z,100483.23
2018-12-19T07:09:10.253Z,100489.69
2018-12-19T07:10:16.640Z,100484.55
2018-12-19T07:11:23.057Z,100480.26
2018-12-19T07:12:29.727Z,100484.55
2018-12-19T07:13:36.013Z,100474.23
2018-12-19T07:14:42.349Z,100478.52
2018-12-19T07:15:48.667Z,100476.81
2018-12-19T07:16:55.821Z,100483.25
2018-12-19T07:18:02.902Z,100481.97
2018-12-19T07:19:10.507Z,100484.11
2018-12-19T07:20:18.232Z,100485.84
2018-12-19T07:21:26.257Z,100487.98
2018-12-19T07:22:34.535Z,100487.55
2018-12-19T07:23:41.586Z,100489.26
2018-12-19T07:24:49.855Z,100490.55
2018-12-19T07:25:58.254Z,100491.85
2018-12-19T07:27:06.487Z,100490.98
2018-12-19T07:28:15.285Z,100490.14
2018-12-19T07:29:22.963Z,100485.83
2018-12-19T07:30:32.101Z,100482.38
2018-12-19T07:31:39.483Z,100484.95
2018-12-19T07:32:47.374Z,100490.55
2018-12-19T07:33:55.541Z,100495.28
2018-12-19T07:35:02.580Z,100489.25
2018-12-19T07:36:09.886Z,100485.81
2018-12-19T07:37:16.612Z,100481.09
2018-12-19T07:38:22.953Z,100476.34
2018-12-19T07:39:29.319Z,100480.21
2018-12-19T07:40:35.709Z,100481.94
2018-12-19T07:41:42.129Z,100464.72
2018-12-19T07:42:48.509Z,100472.48
2018-12-19T07:43:54.865Z,100461.70
2018-12-19T07:45:01.199Z,100467.29
2018-12-19T07:46:07.516Z,100470.72
2018-12-19T07:47:13.938Z,100464.27
2018-12-19T07:48:20.045Z,100470.30
2018-12-19T07:49:26.375Z,100467.29
2018-12-19T07:50:32.724Z,100464.70
2018-12-19T07:51:39.104Z,100462.56
2018-12-19T07:52:45.257Z,100472.45
2018-12-19T07:53:51.640Z,100463.84
2018-12-19T07:54:58.027Z,100465.13
2018-12-19T07:56:04.154Z,100463.42
2018-12-19T07:57:10.540Z,100465.55
2018-12-19T07:58:16.849Z,100467.69
2018-12-19T07:59:23.205Z,100472.86
2018-12-19T08:00:29.575Z,100474.14
2018-12-19T08:01:35.964Z,100475.88
2018-12-19T08:02:42.341Z,100478.44
2018-12-19T08:03:48.642Z,100481.88
2018-12-19T08:04:54.729Z,100475.88
2018-12-19T08:06:01.058Z,100477.14
2018-12-19T08:07:07.412Z,100477.17
2018-12-19T08:08:13.757Z,100476.73
2018-12-19T08:09:20.120Z,100474.15
2018-12-19T08:10:26.468Z,100474.58
2018-12-19T08:11:32.808Z,100474.58
2018-12-19T08:12:39.199Z,100470.66
2018-12-19T08:13:45.530Z,100473.69
2018-12-19T08:14:51.600Z,100474.56
2018-12-19T08:15:57.925Z,100476.26
2018-12-19T08:17:05.020Z,100473.25
2018-12-19T08:18:12.226Z,100465.07
2018-12-19T08:19:21.021Z,100468.06
2018-12-19T08:20:28.817Z,100471.05
2018-12-19T08:21:36.164Z,100474.97
2018-12-19T08:22:43.028Z,100471.95
2018-12-19T08:23:51.277Z,100482.25
2018-12-19T08:24:59.337Z,100475.78
2018-12-19T08:26:07.776Z,100478.80
2018-12-19T08:27:15.088Z,100489.13
2018-12-19T08:28:22.918Z,100485.56
2018-12-19T08:29:30.400Z,100480.41
2018-12-19T08:30:37.931Z,100474.86
2018-12-19T08:31:46.409Z,100476.17
2018-12-19T08:32:54.204Z,100483.92
2018-12-19T08:34:02.278Z,100478.79
2018-12-19T08:35:10.326Z,100481.81
2018-12-19T08:36:17.703Z,100477.07
2018-12-19T08:37:25.592Z,100475.80
2018-12-19T08:38:32.939Z,100476.21
2018-12-19T08:39:40.219Z,100476.63
2018-12-19T08:40:47.761Z,100478.80
2018-12-19T08:41:54.911Z,100475.34
2018-12-19T08:43:02.738Z,100471.89
2018-12-19T08:44:10.151Z,100464.13
2018-12-19T08:45:18.023Z,100474.02
2018-12-19T08:46:25.144Z,100474.87
2018-12-19T08:47:32.483Z,100477.03
2018-12-19T08:48:41.070Z,100476.16
2018-12-19T08:49:48.418Z,100480.90
2018-12-19T08:50:56.141Z,100482.16
2018-12-19T08:52:03.775Z,100475.72
2018-12-19T08:53:11.230Z,100476.58
2018-12-19T08:54:18.981Z,100483.45
2018-12-19T08:55:26.306Z,100489.45
2018-12-19T08:56:33.367Z,100484.71
2018-12-19T08:57:40.326Z,100485.14
2018-12-19T08:58:47.485Z,100482.08
2018-12-19T08:59:54.730Z,100488.95
2018-12-19T09:01:02.016Z,100494.58
2018-12-19T09:02:09.416Z,100491.14
2018-12-19T09:03:16.557Z,100488.11
2018-12-19T09:04:25.939Z,100490.23
2018-12-19T09:05:31.759Z,100491.95
2018-12-19T09:06:40.083Z,100490.26
2018-12-19T09:07:47.520Z,100489.84
2018-12-19T09:08:55.056Z,100490.22
2018-12-19T09:10:02.036Z,100493.67
2018-12-19T09:11:08.051Z,100497.95
2018-12-19T09:12:14.430Z,100486.32
2018-12-19T09:13:20.737Z,100484.16
2018-12-19T09:14:27.069Z,100488.00
2018-12-19T09:15:38.829Z,100484.13
2018-12-19T09:16:45.188Z,100494.46
2018-12-19T09:17:51.577Z,100487.16
2018-12-19T09:18:57.905Z,100491.46
2018-12-19T09:20:03.640Z,100490.16
2018-12-19T09:21:10.009Z,100485.83
2018-12-19T09:22:16.129Z,100487.09
2018-12-19T09:23:22.488Z,100495.30
2018-12-19T09:24:28.482Z,100493.57
2018-12-19T09:25:34.836Z,100496.61
2018-12-19T09:26:41.239Z,100496.16
2018-12-19T09:27:47.641Z,100500.44
2018-12-19T09:28:54.021Z,100500.81
2018-12-19T09:30:00.004Z,100496.14
2018-12-19T09:31:05.962Z,100491.80
2018-12-19T09:32:12.296Z,100488.41
2018-12-19T09:33:18.683Z,100495.30
2018-12-19T09:34:25.000Z,100488.83
2018-12-19T09:35:31.326Z,100488.36
2018-12-19T09:36:37.679Z,100488.34
2018-12-19T09:37:44.035Z,100490.50
2018-12-19T09:38:50.421Z,100487.86
2018-12-19T09:39:56.724Z,100484.03
2018-12-19T09:41:03.066Z,100475.00
2018-12-19T09:42:09.453Z,100484.44
2018-12-19T09:43:15.820Z,100479.71
2018-12-19T09:44:22.196Z,100480.13
2018-12-19T09:45:28.519Z,100480.55
2018-12-19T09:46:34.873Z,100470.64
2018-12-19T09:47:42.031Z,100465.46
2018-12-19T09:48:48.359Z,100460.27
2018-12-19T09:49:54.711Z,100462.45
2018-12-19T09:51:01.082Z,100466.73
2018-12-19T09:52:07.106Z,100468.72
2018-12-19T09:53:13.262Z,100479.93
2018-12-19T09:54:19.613Z,100474.27
2018-12-19T09:55:25.948Z,100468.66
2018-12-19T09:56:32.305Z,100465.61
2018-12-19T09:57:38.474Z,100478.58
2018-12-19T09:58:44.822Z,100469.12
2018-12-19T09:59:51.208Z,100470.36
2018-12-19T10:00:57.562Z,100471.59
2018-12-19T10:02:03.670Z,100467.80
2018-12-19T10:03:10.025Z,100467.34
2018-12-19T10:04:16.412Z,100477.27
2018-12-19T10:05:22.772Z,100475.39
2018-12-19T10:06:29.101Z,100479.67
2018-12-19T10:07:35.489Z,100479.64
2018-12-19T10:08:41.760Z,100483.50
2018-12-19T10:09:49.181Z,100491.67
2018-12-19T10:10:56.047Z,100485.63
2018-12-19T10:12:02.441Z,100482.51
2018-12-19T10:13:08.848Z,100492.44
2018-12-19T10:14:15.181Z,100486.86
2018-12-19T10:15:21.513Z,100485.53
2018-12-19T10:16:27.815Z,100485.59
2018-12-19T10:17:33.852Z,100486.45
2018-12-19T10:18:40.160Z,100478.69
2018-12-19T10:19:46.494Z,100481.28
2018-12-19T10:20:52.820Z,100476.03
2018-12-19T10:21:59.247Z,100479.48
2018-12-19T10:23:05.272Z,100473.91
2018-12-19T10:24:11.617Z,100468.30
2018-12-19T10:25:17.938Z,100466.60
2018-12-19T10:26:24.294Z,100460.56
2018-12-19T10:27:30.628Z,100457.53
2018-12-19T10:28:36.973Z,100454.95
2018-12-19T10:29:43.301Z,100454.45
2018-12-19T10:30:49.635Z,100453.95
2018-12-19T10:31:56.050Z,100455.20
2018-12-19T10:33:02.456Z,100453.52
2018-12-19T10:34:08.806Z,100458.73
2018-12-19T10:35:15.133Z,100449.20
2018-12-19T10:36:21.222Z,100451.39
2018-12-19T10:37:27.586Z,100454.02
2018-12-19T10:38:33.892Z,100450.96
2018-12-19T10:39:39.877Z,100450.49
2018-12-19T10:40:46.187Z,100449.16
2018-12-19T10:41:52.468Z,100443.11
2018-12-19T10:42:58.839Z,100448.27
2018-12-19T10:44:04.968Z,100449.95
2018-12-19T10:45:10.990Z,100447.44
2018-12-19T10:46:17.312Z,100447.80
2018-12-19T10:47:23.616Z,100445.20
2018-12-19T10:48:29.936Z,100451.25
2018-12-19T10:49:36.260Z,100451.14
2018-12-19T10:50:42.557Z,100446.70
2018-12-19T10:51:48.866Z,100446.78
2018-12-19T10:52:55.199Z,100446.77
2018-12-19T10:54:02.058Z,100443.36
2018-12-19T10:55:08.561Z,100442.50
2018-12-19T10:56:14.914Z,100437.27
2018-12-19T10:57:21.294Z,100437.23
2018-12-19T10:58:27.581Z,100440.69
2018-12-19T10:59:33.868Z,100439.36
2018-12-19T11:00:45.609Z,100431.62
2018-12-19T11:01:51.928Z,100429.38
2018-12-19T11:02:58.062Z,100429.80
2018-12-19T11:04:04.076Z,100440.39
2018-12-19T11:05:10.356Z,100435.22
2018-12-19T11:06:16.649Z,100435.27
2018-12-19T11:07:23.016Z,100433.91
2018-12-19T11:08:29.309Z,100425.71
2018-12-19T11:09:35.674Z,100433.44
2018-12-19T11:10:42.011Z,100426.05
2018-12-19T11:11:48.316Z,100425.09
2018-12-19T11:12:54.686Z,100429.89
2018-12-19T11:14:00.960Z,100423.46
2018-12-19T11:15:06.337Z,100423.27
2018-12-19T11:16:12.752Z,100424.48
2018-12-19T11:17:19.106Z,100421.11
2018-12-19T11:18:25.432Z,100416.41
2018-12-19T11:19:31.761Z,100413.00
2018-12-19T11:20:38.102Z,100421.17
2018-12-19T11:21:44.477Z,100418.27
2018-12-19T11:22:50.843Z,100416.92
2018-12-19T11:23:56.869Z,100416.36
2018-12-19T11:25:02.810Z,100411.66
2018-12-19T11:26:09.153Z,100407.33
2018-12-19T11:27:15.086Z,100409.25
2018-12-19T11:28:21.403Z,100407.95
2018-12-19T11:29:27.700Z,100404.34
2018-12-19T11:30:33.668Z,100402.28
2018-12-19T11:31:39.604Z,100401.05
2018-12-19T11:32:46.009Z,100404.88
2018-12-19T11:33:52.310Z,100400.98
2018-12-19T11:34:58.666Z,100403.59
2018-12-19T11:36:04.717Z,100407.18
2018-12-19T11:37:11.090Z,100400.98
2018-12-19T11:38:17.448Z,100403.44
2018-12-19T11:39:23.809Z,100401.84
2018-12-19T11:40:30.140Z,100401.42
2018-12-19T11:41:39.180Z,100398.29
2018-12-19T11:42:42.888Z,100389.74
2018-12-19T11:43:49.267Z,100387.62
2018-12-19T11:44:56.867Z,100391.42
2018-12-19T11:46:01.593Z,100393.53
2018-12-19T11:47:07.965Z,100387.53
2018-12-19T11:48:14.354Z,100392.29
2018-12-19T11:49:20.654Z,100384.93
2018-12-19T11:50:26.987Z,100386.28
2018-12-19T11:51:33.303Z,100382.39
2018-12-19T11:52:39.620Z,100390.99
2018-12-19T11:53:46.012Z,100391.64
2018-12-19T11:54:52.320Z,100391.64
2018-12-19T11:55:58.687Z,100395.48
2018-12-19T11:57:04.787Z,100394.45
2018-12-19T11:58:11.427Z,100389.69
2018-12-19T11:59:17.929Z,100393.16
2018-12-19T12:00:24.332Z,100391.55
2018-12-19T12:01:30.731Z,100391.44
2018-12-19T12:02:37.135Z,100394.83
2018-12-19T12:03:43.164Z,100387.62
2018-12-19T12:04:49.520Z,100393.08
2018-12-19T12:05:55.815Z,100388.27
2018-12-19T12:07:01.510Z,100389.07
2018-12-19T12:08:07.891Z,100389.14
2018-12-19T12:09:14.138Z,100390.80
2018-12-19T12:10:20.162Z,100389.43
2018-12-19T12:11:26.765Z,100387.95
2018-12-19T12:12:33.105Z,100383.73
2018-12-19T12:13:39.458Z,100386.52
2018-12-19T12:14:45.797Z,100379.64
2018-12-19T12:15:52.116Z,100375.20
2018-12-19T12:16:58.440Z,100383.03
2018-12-19T12:18:04.795Z,100382.78
2018-12-19T12:19:11.185Z,100382.98
2018-12-19T12:20:17.520Z,100381.41
2018-12-19T12:21:23.830Z,100380.62
2018-12-19T12:22:30.174Z,100375.97
2018-12-19T12:23:36.560Z,100385.86
2018-12-19T12:24:42.885Z,100381.17
2018-12-19T12:25:49.240Z,100387.22
2018-12-19T12:26:55.695Z,100384.23
2018-12-19T12:28:02.043Z,100387.65
2018-12-19T12:29:08.396Z,100387.16
2018-12-19T12:30:14.366Z,100384.73
2018-12-19T12:31:20.667Z,100384.72
2018-12-19T12:32:27.026Z,100384.72
2018-12-19T12:33:33.420Z,100379.16
2018-12-19T12:34:39.781Z,100383.92
2018-12-19T12:35:45.977Z,100386.94
2018-12-19T12:36:52.285Z,100386.07
2018-12-19T12:37:58.656Z,100380.07
2018-12-19T12:39:04.075Z,100380.40